Terminal Aerodrome Forecast
Issued by NWS

Home | Current Version | Previous Version | Text Only | Print | Product List | Glossary On
Versions: 1 2 3 4 5 6 7 8 9 10 11 12 13 14 15 16 17
000
FTUS41 KPBZ 250600 AAA
TAFMGW
TAF AMD
KMGW 250655Z 2507/2606 22006KT P6SM SCT015 BKN025
     FM251000 24012G24KT P6SM BKN015
     FM251800 25012KT P6SM BKN025=

USA.gov is the U.S. government's official web portal to all federal, state and local government web resources and services.